Terminal Aerodrome Forecast
Issued by NWS

Home | Current Version | Previous Version | Text Only | Print | Product List | Glossary Off
Versions: 1 2 3 4 5 6 7 8 9 10 11 12 13 14 15 16

775
FTUS43 KIWX 271623 AAA
TAFSBN
TAF AMD
KSBN 271623Z 2716/2812 09012G18KT P6SM BKN018
     FM271830 10012G20KT P6SM SCT020 BKN250
     FM280400 10014KT 5SM -SHRA BR OVC025
     FM281000 08015KT 3SM -SHRA BR OVC010=

USA.gov is the U.S. government's official web portal to all federal, state and local government web resources and services.